Time;durP1;ratioP1;P1;durP2;ratioP2;P2;SDS_P1;SDS_P2;PMS_P1;PMS_P2;Temp;Humidity;BMP_temperature;BMP_pressure;BME280_temperature;BME280_humidity;BME280_pressure;Samples;Min_cycle;Max_cycle;Signal;HPM_P1;HPM_P2
2022/12/31 00:00:50;;;;;;;7.00;6.40;;;12.60;99.90;;;;;;5072344;28;20193;-74
2022/12/31 00:03:17;;;;;;;8.13;6.03;;;12.70;99.90;;;;;;5071406;28;20281;-74
2022/12/31 00:05:44;;;;;;;8.68;5.82;;;12.60;99.90;;;;;;5067296;28;20310;-73
2022/12/31 00:08:11;;;;;;;6.70;6.00;;;12.70;99.90;;;;;;5070343;28;20285;-75
2022/12/31 00:10:40;;;;;;;7.63;6.68;;;12.70;99.90;;;;;;5065567;28;20254;-74
2022/12/31 00:13:09;;;;;;;11.65;5.80;;;12.70;99.90;;;;;;5054180;28;20219;-72
2022/12/31 00:15:36;;;;;;;6.97;5.45;;;12.80;99.90;;;;;;5066374;28;20624;-74
2022/12/31 00:18:03;;;;;;;6.55;5.95;;;12.80;99.90;;;;;;5067689;28;20255;-75
2022/12/31 00:20:30;;;;;;;7.78;6.32;;;12.80;99.90;;;;;;5069077;28;20200;-73
2022/12/31 00:22:57;;;;;;;6.60;6.00;;;12.80;99.90;;;;;;5064959;28;20286;-73
2022/12/31 00:25:25;;;;;;;8.45;6.10;;;12.80;99.90;;;;;;5063258;28;20299;-73
2022/12/31 00:27:53;;;;;;;7.70;5.53;;;12.80;99.90;;;;;;5067909;28;20637;-74
2022/12/31 00:30:21;;;;;;;8.45;6.00;;;12.80;99.90;;;;;;5064140;28;20195;-73
2022/12/31 00:32:48;;;;;;;7.25;6.25;;;12.70;99.90;;;;;;5069115;28;20231;-73
2022/12/31 00:35:15;;;;;;;10.60;8.27;;;12.70;99.90;;;;;;5070735;28;20692;-73
2022/12/31 00:37:42;;;;;;;9.20;8.30;;;12.70;99.90;;;;;;5072259;28;20191;-73
2022/12/31 00:40:11;;;;;;;8.15;6.80;;;12.70;99.90;;;;;;5066373;28;20713;-73
2022/12/31 00:42:38;;;;;;;11.18;8.00;;;12.70;99.90;;;;;;5066739;28;20199;-72
2022/12/31 00:45:05;;;;;;;8.35;7.32;;;12.60;99.90;;;;;;5059527;28;20522;-72
2022/12/31 00:47:34;;;;;;;9.23;8.32;;;12.60;99.90;;;;;;5073093;28;20221;-72
2022/12/31 00:50:01;;;;;;;7.57;6.70;;;12.70;99.90;;;;;;5062448;28;20195;-73
2022/12/31 00:52:28;;;;;;;9.63;7.80;;;12.60;99.90;;;;;;5070981;28;20290;-72
2022/12/31 00:54:56;;;;;;;8.40;7.45;;;12.70;99.90;;;;;;5062020;28;20227;-72
2022/12/31 00:57:24;;;;;;;9.10;8.20;;;12.60;99.90;;;;;;5077093;28;20239;-72
2022/12/31 00:59:57;;;;;;;11.13;7.97;;;12.60;99.90;;;;;;5081468;28;20202;-73
2022/12/31 01:02:24;;;;;;;10.23;7.60;;;12.60;99.90;;;;;;5061232;28;20195;-72
2022/12/31 01:04:52;;;;;;;9.52;8.07;;;12.60;99.90;;;;;;5057961;28;20749;-72
2022/12/31 01:07:19;;;;;;;9.88;8.40;;;12.60;99.90;;;;;;5066373;28;20224;-71
2022/12/31 01:09:47;;;;;;;10.02;6.93;;;12.50;99.90;;;;;;5065504;28;20205;-72
2022/12/31 01:12:14;;;;;;;8.57;7.78;;;12.60;99.90;;;;;;5067177;28;20282;-72
2022/12/31 01:14:41;;;;;;;8.82;7.50;;;12.70;99.90;;;;;;5066008;28;20205;-72
2022/12/31 01:17:08;;;;;;;11.05;7.93;;;12.60;99.90;;;;;;5064807;28;20192;-72
2022/12/31 01:19:35;;;;;;;8.52;7.65;;;12.60;99.90;;;;;;5064683;28;20596;-72
2022/12/31 01:22:03;;;;;;;9.35;8.20;;;12.60;99.90;;;;;;5069813;28;20289;-71
2022/12/31 01:24:30;;;;;;;8.15;7.35;;;12.70;99.90;;;;;;5074063;28;20198;-71
2022/12/31 01:26:57;;;;;;;7.07;6.40;;;12.70;99.90;;;;;;5074308;28;20207;-72
2022/12/31 01:29:24;;;;;;;7.35;6.65;;;12.70;99.90;;;;;;5068607;28;20198;-71
2022/12/31 01:31:51;;;;;;;8.48;6.78;;;12.70;99.90;;;;;;5061919;28;20290;-71
2022/12/31 01:34:18;;;;;;;6.75;5.85;;;12.80;99.90;;;;;;5070219;28;20195;-71
2022/12/31 01:36:45;;;;;;;7.15;6.55;;;12.80;99.90;;;;;;5063721;28;20263;-71
2022/12/31 01:39:13;;;;;;;8.15;6.63;;;12.90;99.90;;;;;;5069701;28;20285;-73
2022/12/31 01:41:42;;;;;;;5.75;5.18;;;12.90;99.90;;;;;;5066540;28;20191;-72
2022/12/31 01:44:46;;;;;;;11.70;7.35;;;12.90;99.90;;;;;;5068252;28;20683;-73
2022/12/31 01:47:15;;;;;;;9.70;5.85;;;12.90;99.90;;;;;;5065173;28;20211;-72
2022/12/31 01:49:48;;;;;;;5.32;4.82;;;12.90;99.90;;;;;;5073920;28;20540;-73
2022/12/31 01:52:20;;;;;;;5.78;5.25;;;12.90;99.90;;;;;;5075162;28;20191;-71
2022/12/31 01:54:53;;;;;;;6.80;5.28;;;12.90;99.90;;;;;;5072512;28;20234;-72
2022/12/31 01:57:22;;;;;;;7.70;5.75;;;12.90;99.90;;;;;;5067563;28;20286;-72
2022/12/31 01:59:49;;;;;;;6.13;5.60;;;12.90;99.90;;;;;;5064943;28;20286;-72
2022/12/31 02:02:16;;;;;;;5.82;5.10;;;12.70;99.90;;;;;;5067804;28;20282;-70
2022/12/31 02:04:43;;;;;;;6.30;5.80;;;12.70;99.90;;;;;;5071568;28;20191;-73
2022/12/31 02:07:12;;;;;;;7.97;5.72;;;12.70;99.90;;;;;;5062208;28;20214;-72
2022/12/31 02:09:41;;;;;;;7.40;5.88;;;12.80;99.90;;;;;;5068212;28;20230;-71
2022/12/31 02:12:10;;;;;;;5.95;5.35;;;12.80;99.90;;;;;;5071449;28;20207;-72
2022/12/31 02:14:40;;;;;;;7.22;5.00;;;12.80;99.90;;;;;;5065920;28;20282;-71
2022/12/31 02:17:12;;;;;;;6.47;5.57;;;12.80;99.90;;;;;;5066001;28;20641;-73
2022/12/31 02:20:08;;;;;;;6.90;5.38;;;12.80;99.90;;;;;;5067888;28;20274;-72
2022/12/31 02:23:01;;;;;;;9.02;6.35;;;12.80;99.90;;;;;;5064643;28;20245;-71
2022/12/31 02:25:51;;;;;;;5.95;5.45;;;12.80;99.90;;;;;;5058482;28;20259;-72
2022/12/31 02:28:38;;;;;;;10.13;6.82;;;12.70;99.90;;;;;;5069157;28;20215;-72
2022/12/31 02:31:11;;;;;;;5.50;5.05;;;12.70;99.90;;;;;;5070528;28;20190;-72
2022/12/31 02:33:44;;;;;;;6.32;4.80;;;12.70;99.90;;;;;;5063036;28;20286;-72
2022/12/31 02:36:16;;;;;;;5.93;4.55;;;12.70;99.90;;;;;;5060712;28;20306;-72
2022/12/31 02:38:46;;;;;;;5.97;4.60;;;12.60;99.90;;;;;;5068251;28;20230;-72
2022/12/31 02:41:48;;;;;;;4.55;4.15;;;12.60;99.90;;;;;;5070928;28;20298;-72
2022/12/31 02:44:22;;;;;;;5.93;5.28;;;12.60;99.90;;;;;;5079870;28;20201;-72
2022/12/31 02:46:58;;;;;;;4.97;4.57;;;12.70;99.90;;;;;;5055654;28;20227;-71
2022/12/31 02:49:33;;;;;;;4.70;4.30;;;12.70;99.90;;;;;;5048916;28;20664;-72
2022/12/31 02:52:06;;;;;;;5.15;4.63;;;12.80;99.90;;;;;;5070852;28;20202;-72
2022/12/31 02:54:40;;;;;;;6.70;5.75;;;12.80;99.90;;;;;;5066009;28;20538;-72
2022/12/31 02:57:15;;;;;;;6.15;5.65;;;12.80;99.90;;;;;;5070153;28;20222;-72
2022/12/31 03:02:42;;;;;;;6.70;5.95;;;12.80;99.90;;;;;;5054782;28;20198;-71
2022/12/31 03:05:13;;;;;;;6.55;5.95;;;12.80;99.90;;;;;;5069945;28;20302;-72
2022/12/31 03:07:41;;;;;;;6.90;5.30;;;12.80;99.90;;;;;;5073169;28;20281;-72
2022/12/31 03:10:19;;;;;;;7.53;6.85;;;12.70;99.90;;;;;;5071415;28;20197;-71
2022/12/31 03:12:46;;;;;;;6.97;6.30;;;12.80;99.90;;;;;;5063417;28;20191;-72
2022/12/31 03:15:21;;;;;;;6.50;5.90;;;12.80;99.90;;;;;;5069981;28;20211;-72
2022/12/31 03:17:52;;;;;;;5.90;5.35;;;12.70;99.90;;;;;;5066072;28;20596;-72
2022/12/31 03:23:05;;;;;;;5.50;5.00;;;12.70;99.90;;;;;;5065965;28;20654;-73
2022/12/31 03:25:34;;;;;;;6.13;4.88;;;12.60;99.90;;;;;;5068975;28;20257;-73
2022/12/31 03:28:02;;;;;;;6.28;5.72;;;12.60;99.90;;;;;;5062104;28;20223;-71
2022/12/31 03:30:30;;;;;;;5.90;5.40;;;12.60;99.90;;;;;;5054363;28;20234;-71
2022/12/31 03:33:00;;;;;;;4.80;4.40;;;12.60;99.90;;;;;;5065794;28;20252;-71
2022/12/31 03:35:28;;;;;;;5.00;4.47;;;12.70;99.90;;;;;;5061949;28;20695;-72
2022/12/31 03:37:56;;;;;;;5.00;4.60;;;12.70;99.90;;;;;;5063830;28;20282;-72
2022/12/31 03:40:25;;;;;;;4.15;3.75;;;12.70;99.90;;;;;;5061285;28;20290;-71
2022/12/31 03:42:52;;;;;;;4.15;3.75;;;12.70;99.90;;;;;;5071287;28;20281;-73
2022/12/31 03:45:19;;;;;;;3.83;3.47;;;12.60;99.90;;;;;;5063567;28;20718;-71
2022/12/31 03:47:46;;;;;;;7.00;3.67;;;12.60;99.90;;;;;;5062982;28;20668;-72
2022/12/31 03:50:16;;;;;;;3.53;2.55;;;12.60;99.90;;;;;;5073717;28;20230;-72
2022/12/31 03:52:43;;;;;;;4.05;2.50;;;12.50;99.90;;;;;;5071336;28;20705;-73
2022/12/31 03:55:10;;;;;;;2.40;2.20;;;12.50;99.90;;;;;;5068652;28;20294;-72
2022/12/31 03:57:38;;;;;;;2.17;1.58;;;12.40;99.90;;;;;;5060293;28;20191;-72
2022/12/31 04:00:06;;;;;;;1.88;1.77;;;12.40;99.90;;;;;;5065355;28;20203;-71
2022/12/31 04:02:33;;;;;;;1.48;1.38;;;12.30;99.90;;;;;;5065681;28;20191;-72
2022/12/31 04:05:00;;;;;;;1.63;1.52;;;12.30;99.90;;;;;;5072644;28;20219;-73
2022/12/31 04:07:28;;;;;;;1.25;0.93;;;12.30;99.90;;;;;;5059249;28;20297;-73
2022/12/31 04:09:55;;;;;;;1.00;0.90;;;12.20;99.90;;;;;;5061042;28;20222;-72
2022/12/31 04:12:22;;;;;;;2.25;1.20;;;12.20;99.90;;;;;;5066656;28;20218;-72
2022/12/31 04:14:49;;;;;;;1.42;1.05;;;12.20;99.90;;;;;;5054271;28;20309;-72
2022/12/31 04:17:16;;;;;;;2.78;1.75;;;12.20;99.90;;;;;;5062735;28;20285;-73
2022/12/31 04:19:43;;;;;;;5.32;3.42;;;12.10;99.90;;;;;;5072098;28;20265;-72
2022/12/31 04:22:10;;;;;;;1.75;1.55;;;12.20;99.90;;;;;;5075776;28;20298;-72
2022/12/31 04:24:38;;;;;;;2.45;1.00;;;12.20;99.90;;;;;;5069448;28;20198;-72
2022/12/31 04:27:05;;;;;;;2.55;1.00;;;12.30;99.90;;;;;;5067816;28;20241;-72
2022/12/31 04:29:32;;;;;;;1.23;1.00;;;12.30;99.90;;;;;;5069244;28;20206;-72
2022/12/31 04:32:07;;;;;;;1.65;1.02;;;12.40;99.90;;;;;;5061511;28;20203;-73
2022/12/31 04:34:35;;;;;;;1.10;1.00;;;12.40;99.90;;;;;;5068422;28;20230;-71
2022/12/31 04:37:02;;;;;;;3.95;1.40;;;12.40;99.90;;;;;;5067236;28;20274;-73
2022/12/31 04:39:29;;;;;;;1.15;1.00;;;12.40;99.90;;;;;;5060967;28;20198;-71
2022/12/31 04:41:57;;;;;;;1.35;0.90;;;12.40;99.90;;;;;;5067722;28;20546;-72
2022/12/31 04:44:24;;;;;;;1.40;0.93;;;12.50;99.90;;;;;;5067025;28;20282;-72
2022/12/31 04:46:51;;;;;;;1.20;0.93;;;12.50;99.90;;;;;;5069308;28;20306;-72
2022/12/31 04:49:18;;;;;;;1.95;0.98;;;12.50;99.90;;;;;;5075422;28;20290;-72
2022/12/31 04:51:45;;;;;;;2.55;1.00;;;12.50;99.90;;;;;;5066197;28;20290;-72
2022/12/31 04:54:12;;;;;;;1.50;1.10;;;12.60;99.90;;;;;;5069509;28;20234;-72
2022/12/31 04:56:39;;;;;;;2.20;1.17;;;12.60;99.90;;;;;;5074204;28;20294;-70
2022/12/31 04:59:08;;;;;;;1.05;0.95;;;12.60;99.90;;;;;;5069365;28;20255;-71
2022/12/31 05:01:37;;;;;;;2.15;1.05;;;12.50;99.90;;;;;;5064126;28;20214;-72
2022/12/31 05:04:04;;;;;;;1.13;0.98;;;12.50;99.90;;;;;;5069554;28;20210;-72
2022/12/31 05:06:31;;;;;;;1.33;1.00;;;12.30;99.90;;;;;;5064775;28;20245;-71
2022/12/31 05:08:58;;;;;;;1.80;0.90;;;12.30;99.90;;;;;;5069967;28;20217;-72
2022/12/31 05:11:25;;;;;;;0.80;0.80;;;12.30;99.90;;;;;;5066139;28;20252;-72
2022/12/31 05:13:51;;;;;;;2.75;1.55;;;12.20;99.90;;;;;;5070307;28;20222;-73
2022/12/31 05:16:20;;;;;;;1.35;1.25;;;12.20;99.90;;;;;;5065241;28;20248;-72
2022/12/31 05:18:47;;;;;;;1.40;1.30;;;12.10;99.90;;;;;;5069528;28;20194;-72
2022/12/31 05:21:19;;;;;;;2.08;1.10;;;12.10;99.90;;;;;;5070629;28;20289;-72
2022/12/31 05:23:46;;;;;;;1.10;1.00;;;12.10;99.90;;;;;;5073197;28;20649;-72
2022/12/31 05:26:13;;;;;;;1.33;1.00;;;12.10;99.90;;;;;;5063932;28;20222;-72
2022/12/31 05:28:40;;;;;;;4.13;1.45;;;12.10;99.90;;;;;;5071838;28;20214;-72
2022/12/31 05:31:07;;;;;;;4.30;1.77;;;12.20;99.90;;;;;;5067640;28;20221;-72
2022/12/31 05:33:35;;;;;;;1.55;1.45;;;12.10;99.90;;;;;;5064615;28;20205;-72
2022/12/31 05:36:02;;;;;;;2.00;1.45;;;12.10;99.90;;;;;;5071585;28;20219;-71
2022/12/31 05:38:29;;;;;;;1.58;1.20;;;12.20;99.90;;;;;;5064310;28;20282;-71
2022/12/31 05:41:00;;;;;;;1.85;1.50;;;12.20;99.90;;;;;;5070864;28;20195;-72
2022/12/31 05:43:27;;;;;;;1.75;1.58;;;12.20;99.90;;;;;;5060921;28;20195;-73
2022/12/31 05:45:54;;;;;;;2.30;1.75;;;12.20;99.90;;;;;;5064706;28;20722;-72
2022/12/31 05:48:21;;;;;;;3.15;1.98;;;12.20;99.90;;;;;;5067902;28;20291;-72
2022/12/31 05:50:50;;;;;;;3.30;2.00;;;12.20;99.90;;;;;;5065245;28;20200;-72
2022/12/31 05:53:16;;;;;;;2.58;2.38;;;12.30;99.90;;;;;;5063560;28;20196;-71
2022/12/31 05:55:45;;;;;;;3.17;2.15;;;12.30;99.90;;;;;;5071667;28;20330;-72
2022/12/31 05:58:12;;;;;;;3.75;2.20;;;12.30;99.90;;;;;;5068796;28;20194;-72
2022/12/31 06:00:40;;;;;;;2.33;2.00;;;12.30;99.90;;;;;;5067762;28;20205;-71
2022/12/31 06:03:07;;;;;;;3.80;1.75;;;12.40;99.90;;;;;;5063883;28;20235;-72
2022/12/31 06:05:34;;;;;;;2.03;1.83;;;12.30;99.90;;;;;;5067696;28;20222;-72
2022/12/31 06:08:03;;;;;;;2.30;1.40;;;12.40;99.90;;;;;;5055343;28;20220;-72
2022/12/31 06:10:30;;;;;;;2.50;2.00;;;12.40;99.90;;;;;;5066516;28;20198;-71
2022/12/31 06:12:56;;;;;;;2.55;2.35;;;12.30;99.90;;;;;;5078400;28;20225;-72
2022/12/31 06:15:23;;;;;;;2.60;2.10;;;12.40;99.90;;;;;;5078083;28;20214;-72
2022/12/31 06:17:50;;;;;;;2.17;2.00;;;12.40;99.90;;;;;;5074894;28;20193;-72
2022/12/31 06:20:18;;;;;;;2.30;2.13;;;12.40;99.90;;;;;;5059557;28;20207;-72
2022/12/31 06:22:44;;;;;;;1.85;1.75;;;12.50;99.90;;;;;;5066242;28;20238;-72
2022/12/31 06:25:13;;;;;;;3.97;2.25;;;12.40;99.90;;;;;;5067788;28;20226;-72
2022/12/31 06:27:40;;;;;;;2.60;2.38;;;12.30;99.90;;;;;;5067751;28;20298;-73
2022/12/31 06:30:09;;;;;;;2.25;2.05;;;12.30;99.90;;;;;;5069832;28;20547;-72
2022/12/31 06:32:38;;;;;;;2.53;2.25;;;12.30;99.90;;;;;;5069867;28;20198;-72
2022/12/31 06:35:06;;;;;;;3.25;2.97;;;12.30;99.90;;;;;;5062489;28;20240;-71
2022/12/31 06:37:33;;;;;;;2.40;2.20;;;12.40;99.90;;;;;;5071613;28;20230;-70
2022/12/31 06:40:00;;;;;;;2.60;2.20;;;12.30;99.90;;;;;;5063554;28;20301;-71
2022/12/31 06:42:30;;;;;;;1.90;1.80;;;12.30;99.90;;;;;;5061551;28;20233;-73
2022/12/31 06:44:57;;;;;;;2.20;2.00;;;12.30;99.90;;;;;;5068222;28;20254;-71
2022/12/31 06:47:24;;;;;;;3.03;2.65;;;12.30;99.90;;;;;;5061213;28;20212;-72
2022/12/31 06:49:51;;;;;;;3.65;2.70;;;12.20;99.90;;;;;;5069573;28;20289;-72
2022/12/31 06:52:18;;;;;;;2.63;2.40;;;12.10;99.90;;;;;;5063494;28;20202;-72
2022/12/31 06:54:45;;;;;;;3.00;2.78;;;12.10;99.90;;;;;;5063072;28;20218;-72
2022/12/31 06:57:13;;;;;;;6.28;3.35;;;12.10;99.90;;;;;;5071229;28;20669;-73
2022/12/31 06:59:42;;;;;;;3.05;2.75;;;12.10;99.90;;;;;;5065569;28;20194;-72
2022/12/31 07:02:29;;;;;;;2.95;2.65;;;12.20;99.90;;;;;;5065179;28;20285;-72
2022/12/31 07:05:29;;;;;;;4.82;3.17;;;12.20;99.90;;;;;;5061313;28;20298;-72
2022/12/31 07:08:05;;;;;;;6.60;3.40;;;12.10;99.90;;;;;;5068032;28;20244;-73
2022/12/31 07:10:42;;;;;;;4.13;3.00;;;12.20;99.90;;;;;;5042328;28;20194;-73
2022/12/31 07:13:28;;;;;;;4.72;3.95;;;12.20;99.90;;;;;;5069588;28;20659;-73
2022/12/31 07:16:18;;;;;;;3.28;2.72;;;12.30;99.90;;;;;;5054006;28;20221;-73
2022/12/31 07:18:51;;;;;;;4.20;3.80;;;12.30;99.90;;;;;;5062543;28;20656;-73
2022/12/31 07:21:24;;;;;;;5.10;4.30;;;12.30;99.90;;;;;;5068900;28;20635;-73
2022/12/31 07:23:51;;;;;;;3.60;3.30;;;12.40;99.90;;;;;;5067136;28;20198;-72
2022/12/31 07:26:31;;;;;;;5.65;4.20;;;12.40;99.90;;;;;;5069317;28;20373;-73
2022/12/31 07:29:04;;;;;;;4.40;4.00;;;12.50;99.90;;;;;;5069443;28;20268;-74
2022/12/31 07:31:49;;;;;;;3.83;3.22;;;12.40;99.90;;;;;;5062156;28;20208;-74
2022/12/31 07:34:25;;;;;;;3.75;3.45;;;12.50;99.90;;;;;;5071221;28;20202;-71
2022/12/31 07:37:03;;;;;;;3.97;3.38;;;12.60;99.90;;;;;;5063450;28;20543;-72
2022/12/31 07:39:39;;;;;;;5.10;3.75;;;12.60;99.90;;;;;;5048770;28;20191;-75
2022/12/31 07:42:16;;;;;;;4.30;3.90;;;12.60;99.90;;;;;;5049634;28;20206;-73
2022/12/31 07:44:58;;;;;;;5.85;4.65;;;12.60;99.90;;;;;;5062801;28;20248;-75
2022/12/31 07:47:28;;;;;;;4.45;4.05;;;12.50;99.90;;;;;;5048115;28;20245;-74
2022/12/31 07:49:56;;;;;;;4.90;4.43;;;12.40;99.90;;;;;;5067616;28;20257;-73
2022/12/31 07:52:24;;;;;;;6.03;5.43;;;12.50;99.90;;;;;;5065388;28;20201;-74
2022/12/31 07:54:52;;;;;;;5.53;4.65;;;12.50;99.90;;;;;;5066871;28;20673;-75
2022/12/31 07:57:20;;;;;;;5.70;5.10;;;12.50;99.90;;;;;;5065429;28;20195;-73
2022/12/31 08:00:05;;;;;;;5.43;4.93;;;12.50;99.90;;;;;;5077534;28;20226;-71
2022/12/31 08:03:03;;;;;;;6.43;5.82;;;12.50;99.90;;;;;;5082820;28;20202;-72
2022/12/31 08:05:40;;;;;;;5.68;5.18;;;12.40;99.90;;;;;;5052898;28;20297;-71
2022/12/31 08:08:24;;;;;;;5.13;4.63;;;12.40;99.90;;;;;;5049721;28;20653;-72
2022/12/31 08:11:03;;;;;;;7.15;6.00;;;12.50;99.90;;;;;;5059532;28;20695;-73
2022/12/31 08:13:31;;;;;;;6.55;5.57;;;12.60;99.90;;;;;;5054700;28;20248;-70
2022/12/31 08:15:59;;;;;;;7.50;4.80;;;12.50;99.90;;;;;;5066298;28;20637;-71
2022/12/31 08:18:28;;;;;;;6.30;5.03;;;12.50;99.90;;;;;;5078879;28;20191;-69
2022/12/31 08:21:03;;;;;;;11.00;7.07;;;12.60;99.90;;;;;;5074565;28;20199;-71
2022/12/31 08:23:36;;;;;;;8.18;7.28;;;12.60;99.90;;;;;;5072291;28;20305;-71
2022/12/31 08:26:23;;;;;;;7.80;5.90;;;12.70;99.90;;;;;;5067154;28;20225;-70
2022/12/31 08:29:01;;;;;;;6.45;5.85;;;12.70;99.90;;;;;;5084627;28;20222;-73
2022/12/31 08:31:36;;;;;;;9.63;6.57;;;12.80;99.90;;;;;;5078308;28;20552;-72
2022/12/31 08:34:10;;;;;;;9.48;5.38;;;12.70;99.90;;;;;;5060509;28;20640;-71
2022/12/31 08:36:46;;;;;;;5.20;4.70;;;12.70;99.90;;;;;;5078052;28;20607;-71
2022/12/31 08:39:24;;;;;;;5.25;4.75;;;12.80;99.90;;;;;;5089833;28;20197;-70
2022/12/31 08:41:54;;;;;;;6.22;5.63;;;12.80;99.90;;;;;;5057671;28;20718;-71
2022/12/31 08:44:31;;;;;;;5.38;4.88;;;12.80;99.90;;;;;;5073937;28;20194;-71
2022/12/31 08:47:09;;;;;;;8.02;6.70;;;12.90;99.90;;;;;;5077746;28;20281;-72
2022/12/31 08:49:37;;;;;;;6.03;5.38;;;12.90;99.90;;;;;;5043953;28;20289;-72
2022/12/31 08:52:12;;;;;;;5.55;5.05;;;12.90;99.90;;;;;;5071096;28;20199;-71
2022/12/31 08:54:40;;;;;;;5.85;5.28;;;12.90;99.90;;;;;;5076020;28;20277;-71
2022/12/31 08:57:16;;;;;;;5.63;5.13;;;12.90;99.90;;;;;;5063110;28;20206;-72
2022/12/31 08:59:53;;;;;;;5.53;4.55;;;12.90;99.90;;;;;;5063330;28;20266;-71
2022/12/31 09:02:39;;;;;;;5.82;5.20;;;12.90;99.90;;;;;;5046809;28;20656;-71
2022/12/31 09:05:19;;;;;;;5.35;4.85;;;13.00;99.90;;;;;;5073016;28;20301;-71
2022/12/31 09:07:55;;;;;;;5.25;4.40;;;13.00;99.90;;;;;;5067158;28;20719;-73
2022/12/31 09:10:27;;;;;;;6.47;4.97;;;13.00;99.90;;;;;;5054173;28;20236;-73
2022/12/31 09:13:00;;;;;;;6.53;5.20;;;12.80;99.90;;;;;;5064839;28;20675;-72
2022/12/31 09:15:32;;;;;;;5.10;3.88;;;12.90;99.90;;;;;;5070706;28;20220;-73
2022/12/31 09:18:02;;;;;;;3.83;3.53;;;12.90;99.90;;;;;;5066829;28;20286;-73
2022/12/31 09:20:33;;;;;;;4.90;4.40;;;13.00;99.90;;;;;;5066444;28;20714;-73
2022/12/31 09:23:03;;;;;;;4.68;4.28;;;12.90;99.90;;;;;;5068534;28;20202;-71
2022/12/31 09:25:31;;;;;;;4.85;4.10;;;13.00;99.90;;;;;;5066014;28;20313;-71
2022/12/31 09:28:10;;;;;;;4.07;2.70;;;13.00;99.90;;;;;;5069276;28;20198;-73
2022/12/31 09:30:45;;;;;;;3.92;3.10;;;13.00;99.90;;;;;;5050024;28;20189;-74
2022/12/31 09:33:21;;;;;;;6.60;2.70;;;13.00;99.90;;;;;;5052625;28;20199;-73
2022/12/31 09:35:53;;;;;;;4.63;2.55;;;13.10;99.90;;;;;;5057455;28;20240;-73
2022/12/31 09:38:27;;;;;;;4.30;3.90;;;13.10;99.90;;;;;;5071907;28;20289;-73
2022/12/31 09:41:14;;;;;;;3.20;2.90;;;13.10;99.90;;;;;;5069192;28;20629;-72
2022/12/31 09:44:08;;;;;;;2.28;2.10;;;13.10;99.90;;;;;;5068406;28;20203;-72
2022/12/31 09:47:16;;;;;;;2.25;2.05;;;13.20;99.90;;;;;;5071191;28;20260;-72
2022/12/31 09:50:29;;;;;;;3.47;2.40;;;13.10;99.90;;;;;;5046477;28;20314;-73
2022/12/31 09:53:13;;;;;;;2.50;2.30;;;13.10;99.90;;;;;;5062322;28;20243;-73
2022/12/31 09:55:48;;;;;;;2.45;2.25;;;13.10;99.90;;;;;;5065815;28;20223;-73
2022/12/31 09:58:29;;;;;;;2.10;1.90;;;13.10;99.90;;;;;;5070997;28;20194;-73
2022/12/31 10:01:03;;;;;;;2.00;1.90;;;13.20;99.90;;;;;;5059396;28;20223;-73
2022/12/31 10:03:43;;;;;;;3.35;1.90;;;13.20;99.90;;;;;;5050451;28;20644;-72
2022/12/31 10:06:24;;;;;;;1.75;1.65;;;13.20;99.90;;;;;;5042389;28;20652;-71
2022/12/31 10:09:06;;;;;;;1.75;1.65;;;13.20;99.90;;;;;;5061739;28;20269;-72
2022/12/31 10:11:46;;;;;;;2.13;2.03;;;13.20;99.90;;;;;;5041965;28;20215;-73
2022/12/31 10:14:29;;;;;;;2.15;1.95;;;13.20;99.90;;;;;;5073694;28;20657;-72
2022/12/31 10:17:16;;;;;;;2.10;1.90;;;13.20;99.90;;;;;;5045661;28;20916;-73
2022/12/31 10:19:55;;;;;;;1.65;1.55;;;13.20;99.90;;;;;;5047318;28;20226;-73
2022/12/31 10:22:53;;;;;;;1.63;1.45;;;13.20;99.90;;;;;;5051567;28;20361;-73
2022/12/31 10:25:40;;;;;;;1.70;1.60;;;13.20;99.90;;;;;;5063197;28;20306;-74
2022/12/31 10:28:18;;;;;;;1.75;1.65;;;13.30;99.90;;;;;;5065995;28;20208;-71
2022/12/31 10:30:57;;;;;;;1.35;1.20;;;13.20;99.90;;;;;;5049391;28;20556;-73
2022/12/31 10:33:37;;;;;;;1.33;1.23;;;13.30;99.90;;;;;;5070737;28;20610;-73
2022/12/31 10:36:12;;;;;;;1.40;1.30;;;13.30;99.90;;;;;;5053254;28;20222;-74
2022/12/31 10:38:50;;;;;;;1.50;1.40;;;13.40;99.90;;;;;;5070529;28;20194;-72
2022/12/31 10:42:03;;;;;;;1.10;1.00;;;13.40;99.90;;;;;;5053468;28;20233;-72
2022/12/31 10:44:59;;;;;;;1.35;1.10;;;13.40;99.90;;;;;;5056018;28;20669;-73
2022/12/31 10:47:59;;;;;;;1.48;1.10;;;13.50;99.90;;;;;;5070703;28;20282;-72
2022/12/31 10:50:48;;;;;;;1.20;1.10;;;13.50;99.90;;;;;;5051732;28;20296;-73
2022/12/31 10:53:41;;;;;;;1.20;1.10;;;13.50;99.90;;;;;;5055857;28;20230;-72
2022/12/31 10:56:39;;;;;;;0.90;0.90;;;13.50;99.90;;;;;;5066863;28;20306;-74
2022/12/31 10:59:49;;;;;;;1.33;1.23;;;13.50;99.90;;;;;;5054563;28;20230;-72
2022/12/31 11:02:46;;;;;;;0.95;0.82;;;13.50;99.90;;;;;;5071137;28;20289;-72
2022/12/31 11:05:49;;;;;;;1.25;0.93;;;13.40;99.90;;;;;;5034830;28;20699;-73
2022/12/31 11:08:36;;;;;;;0.82;0.82;;;13.50;99.90;;;;;;5067011;28;20249;-73
2022/12/31 11:11:26;;;;;;;0.80;0.80;;;13.40;99.90;;;;;;5048229;28;20277;-73
2022/12/31 11:14:21;;;;;;;1.17;1.08;;;13.50;99.90;;;;;;5061968;28;20195;-72
2022/12/31 11:17:20;;;;;;;0.85;0.80;;;13.50;99.90;;;;;;5046700;28;20247;-72
2022/12/31 11:20:02;;;;;;;0.95;0.85;;;13.50;99.90;;;;;;5064152;28;20226;-73
2022/12/31 11:22:40;;;;;;;1.77;0.90;;;13.50;99.90;;;;;;5041738;28;20269;-74
2022/12/31 11:25:22;;;;;;;1.50;0.93;;;13.50;99.90;;;;;;5067636;28;20249;-74
2022/12/31 11:28:22;;;;;;;0.80;0.77;;;13.60;99.90;;;;;;5050273;28;20717;-74
2022/12/31 11:31:02;;;;;;;1.75;0.90;;;13.50;99.90;;;;;;5071939;28;20222;-72
2022/12/31 11:33:57;;;;;;;1.20;1.02;;;13.70;99.90;;;;;;5064565;28;20229;-73
2022/12/31 11:36:36;;;;;;;1.40;0.93;;;13.80;99.90;;;;;;5058242;28;20235;-74
2022/12/31 11:39:34;;;;;;;0.80;0.70;;;13.80;99.90;;;;;;5048847;28;20221;-73
2022/12/31 11:42:12;;;;;;;1.25;1.15;;;13.90;99.90;;;;;;5061139;28;20195;-73
2022/12/31 11:44:49;;;;;;;1.00;0.90;;;14.00;99.90;;;;;;5050220;28;20533;-74
2022/12/31 11:47:57;;;;;;;1.33;1.20;;;14.10;99.90;;;;;;5049956;28;20199;-73
2022/12/31 11:50:38;;;;;;;1.65;0.90;;;14.10;99.90;;;;;;5037759;28;20303;-73
2022/12/31 11:53:23;;;;;;;1.13;0.95;;;14.10;99.90;;;;;;5072100;28;20269;-74
2022/12/31 11:56:01;;;;;;;4.70;1.10;;;14.10;99.90;;;;;;5070101;28;20215;-72
2022/12/31 11:58:29;;;;;;;0.80;0.70;;;14.20;99.90;;;;;;5069479;28;20219;-73
2022/12/31 12:01:00;;;;;;;1.35;0.90;;;14.20;99.90;;;;;;5071545;28;20242;-73
2022/12/31 12:03:27;;;;;;;2.17;1.20;;;14.30;99.90;;;;;;5067058;28;20195;-73
2022/12/31 12:05:58;;;;;;;1.10;0.90;;;14.30;99.90;;;;;;5060766;28;20306;-73
2022/12/31 12:08:26;;;;;;;2.92;1.25;;;14.20;99.90;;;;;;5064806;28;20195;-73
2022/12/31 12:10:58;;;;;;;1.48;1.20;;;14.30;99.90;;;;;;5061510;28;20224;-72
2022/12/31 12:13:27;;;;;;;3.25;1.50;;;14.30;99.90;;;;;;5064826;28;20611;-72
2022/12/31 12:15:57;;;;;;;1.60;1.05;;;14.30;99.90;;;;;;5064096;28;20658;-73
2022/12/31 12:18:33;;;;;;;1.55;1.40;;;14.20;99.90;;;;;;5056345;28;20201;-74
2022/12/31 12:21:09;;;;;;;2.22;1.40;;;14.30;99.90;;;;;;5064119;28;20197;-74
2022/12/31 12:23:36;;;;;;;1.77;1.67;;;14.20;99.90;;;;;;5056784;28;20206;-73
2022/12/31 12:26:04;;;;;;;2.22;2.03;;;14.20;99.90;;;;;;5069178;28;20566;-74
2022/12/31 12:28:42;;;;;;;2.10;1.50;;;14.10;99.90;;;;;;5065970;28;20198;-72
2022/12/31 12:31:19;;;;;;;1.67;1.58;;;14.10;99.90;;;;;;5050399;28;20280;-73
2022/12/31 12:33:48;;;;;;;1.90;1.58;;;14.10;99.90;;;;;;5054340;28;20629;-73
2022/12/31 12:36:19;;;;;;;2.20;1.65;;;14.00;99.90;;;;;;5067401;28;20229;-73
2022/12/31 12:38:46;;;;;;;2.30;2.10;;;14.00;99.90;;;;;;5062877;28;20231;-72
2022/12/31 12:41:22;;;;;;;2.33;2.05;;;14.10;99.90;;;;;;5066535;28;20287;-73
2022/12/31 12:43:49;;;;;;;2.95;1.52;;;14.00;99.90;;;;;;5065141;28;20197;-73
2022/12/31 12:46:22;;;;;;;3.33;2.28;;;14.10;99.90;;;;;;5066448;28;20310;-74
2022/12/31 12:48:56;;;;;;;2.47;2.10;;;14.10;99.90;;;;;;5072271;28;20260;-73
2022/12/31 12:51:41;;;;;;;7.03;3.05;;;14.00;99.90;;;;;;5064305;28;20729;-72
2022/12/31 12:54:19;;;;;;;4.50;3.90;;;14.00;99.90;;;;;;5067736;28;20210;-73
2022/12/31 12:56:52;;;;;;;3.10;2.58;;;14.00;99.90;;;;;;5066218;28;20254;-72
2022/12/31 13:00:01;;;;;;;4.70;2.70;;;14.00;99.90;;;;;;5072681;28;20289;-73
2022/12/31 13:03:15;;;;;;;2.67;2.47;;;14.00;99.90;;;;;;5064268;28;20192;-72
2022/12/31 13:05:56;;;;;;;5.68;3.35;;;14.00;99.90;;;;;;5067236;28;20248;-72
2022/12/31 13:08:44;;;;;;;2.97;2.70;;;14.00;99.90;;;;;;5069849;28;20195;-72
2022/12/31 13:11:25;;;;;;;3.15;2.85;;;14.00;99.90;;;;;;5054317;28;20323;-74
2022/12/31 13:13:59;;;;;;;2.25;2.05;;;14.10;99.90;;;;;;5055424;28;20208;-72
2022/12/31 13:16:36;;;;;;;1.92;1.83;;;14.20;99.90;;;;;;5060689;28;20222;-73
2022/12/31 13:19:10;;;;;;;2.25;2.05;;;14.20;99.90;;;;;;5080963;28;20200;-73
2022/12/31 13:21:45;;;;;;;3.53;2.05;;;14.30;99.90;;;;;;5075075;28;20539;-73
2022/12/31 13:24:23;;;;;;;2.85;2.15;;;14.40;99.90;;;;;;5062884;28;20296;-73
2022/12/31 13:26:57;;;;;;;3.00;1.77;;;14.40;99.90;;;;;;5052924;28;20253;-73